sensor_id;sensor_type;location;lat;lon;timestamp;pressure;altitude;pressure_sealevel;temperature;humidity
75594;BME280;64176;49.156;7.810;2023-11-19T00:02:46;99071.13;;;8.56;100.00
75594;BME280;64176;49.156;7.810;2023-11-19T00:05:34;99066.78;;;8.52;100.00
75594;BME280;64176;49.156;7.810;2023-11-19T00:08:18;99058.22;;;8.54;100.00
75594;BME280;64176;49.156;7.810;2023-11-19T00:11:02;99059.09;;;8.56;100.00
75594;BME280;64176;49.156;7.810;2023-11-19T00:13:49;99058.25;;;8.56;100.00
75594;BME280;64176;49.156;7.810;2023-11-19T00:16:33;99037.69;;;8.60;100.00
75594;BME280;64176;49.156;7.810;2023-11-19T00:19:19;99043.66;;;8.56;100.00
75594;BME280;64176;49.156;7.810;2023-11-19T00:22:06;99035.91;;;8.56;100.00
75594;BME280;64176;49.156;7.810;2023-11-19T00:24:50;99033.31;;;8.50;100.00
75594;BME280;64176;49.156;7.810;2023-11-19T00:27:36;99037.63;;;8.54;100.00
75594;BME280;64176;49.156;7.810;2023-11-19T00:30:23;99041.84;;;8.51;100.00
75594;BME280;64176;49.156;7.810;2023-11-19T00:33:07;99037.69;;;8.60;100.00
75594;BME280;64176;49.156;7.810;2023-11-19T00:35:54;99031.66;;;8.58;100.00
75594;BME280;64176;49.156;7.810;2023-11-19T00:38:38;99044.50;;;8.57;100.00
75594;BME280;64176;49.156;7.810;2023-11-19T00:41:22;99028.97;;;8.51;100.00
75594;BME280;64176;49.156;7.810;2023-11-19T00:44:06;99020.44;;;8.50;100.00
75594;BME280;64176;49.156;7.810;2023-11-19T00:46:52;99017.88;;;8.55;100.00
75594;BME280;64176;49.156;7.810;2023-11-19T00:49:36;99005.75;;;8.45;100.00
75594;BME280;64176;49.156;7.810;2023-11-19T00:52:21;99025.59;;;8.55;100.00
75594;BME280;64176;49.156;7.810;2023-11-19T00:55:11;99022.13;;;8.50;100.00
75594;BME280;64176;49.156;7.810;2023-11-19T00:57:58;99014.38;;;8.48;100.00
75594;BME280;64176;49.156;7.810;2023-11-19T01:00:42;99013.47;;;8.45;100.00
75594;BME280;64176;49.156;7.810;2023-11-19T01:03:28;99016.06;;;8.45;100.00
75594;BME280;64176;49.156;7.810;2023-11-19T01:06:12;98991.09;;;8.36;100.00
75594;BME280;64176;49.156;7.810;2023-11-19T01:08:58;99003.13;;;8.40;100.00
75594;BME280;64176;49.156;7.810;2023-11-19T01:11:44;99004.84;;;8.41;100.00
75594;BME280;64176;49.156;7.810;2023-11-19T01:14:29;99020.28;;;8.38;100.00
75594;BME280;64176;49.156;7.810;2023-11-19T01:17:17;99015.16;;;8.38;100.00
75594;BME280;64176;49.156;7.810;2023-11-19T01:20:04;99016.81;;;8.34;100.00
75594;BME280;64176;49.156;7.810;2023-11-19T01:22:51;99017.69;;;8.36;100.00
75594;BME280;64176;49.156;7.810;2023-11-19T01:25:35;99007.38;;;8.33;100.00
75594;BME280;64176;49.156;7.810;2023-11-19T01:28:22;99021.16;;;8.38;100.00
75594;BME280;64176;49.156;7.810;2023-11-19T01:31:08;99022.84;;;8.39;100.00
75594;BME280;64176;49.156;7.810;2023-11-19T01:33:53;99011.69;;;8.36;100.00
75594;BME280;64176;49.156;7.810;2023-11-19T01:36:37;98997.06;;;8.33;100.00
75594;BME280;64176;49.156;7.810;2023-11-19T01:39:23;98993.66;;;8.34;100.00
75594;BME280;64176;49.156;7.810;2023-11-19T01:42:07;98988.53;;;8.37;100.00
75594;BME280;64176;49.156;7.810;2023-11-19T01:44:57;98997.09;;;8.36;100.00
75594;BME280;64176;49.156;7.810;2023-11-19T01:47:42;98981.59;;;8.32;100.00
75594;BME280;64176;49.156;7.810;2023-11-19T01:50:31;98991.97;;;8.39;100.00
75594;BME280;64176;49.156;7.810;2023-11-19T01:53:17;98984.25;;;8.39;100.00
75594;BME280;64176;49.156;7.810;2023-11-19T01:56:01;98985.06;;;8.35;100.00
75594;BME280;64176;49.156;7.810;2023-11-19T01:58:45;98978.19;;;8.34;100.00
75594;BME280;64176;49.156;7.810;2023-11-19T02:01:35;98977.38;;;8.40;100.00
75594;BME280;64176;49.156;7.810;2023-11-19T02:04:23;98977.34;;;8.35;100.00
75594;BME280;64176;49.156;7.810;2023-11-19T02:07:10;98972.09;;;8.31;100.00
75594;BME280;64176;49.156;7.810;2023-11-19T02:09:54;98985.13;;;8.38;100.00
75594;BME280;64176;49.156;7.810;2023-11-19T02:12:42;98961.88;;;8.34;100.00
75594;BME280;64176;49.156;7.810;2023-11-19T02:15:33;98963.72;;;8.47;100.00
75594;BME280;64176;49.156;7.810;2023-11-19T02:18:22;98968.06;;;8.54;100.00
75594;BME280;64176;49.156;7.810;2023-11-19T02:21:07;98957.16;;;8.86;100.00
75594;BME280;64176;49.156;7.810;2023-11-19T02:23:51;98955.44;;;8.83;100.00
75594;BME280;64176;49.156;7.810;2023-11-19T02:29:28;98959.84;;;9.01;100.00
75594;BME280;64176;49.156;7.810;2023-11-19T02:32:17;98949.50;;;8.92;100.00
75594;BME280;64176;49.156;7.810;2023-11-19T02:35:01;98948.69;;;9.02;100.00
75594;BME280;64176;49.156;7.810;2023-11-19T02:37:47;98938.44;;;9.09;100.00
75594;BME280;64176;49.156;7.810;2023-11-19T02:40:33;98935.91;;;9.16;100.00
75594;BME280;64176;49.156;7.810;2023-11-19T02:43:17;98941.97;;;9.24;100.00
75594;BME280;64176;49.156;7.810;2023-11-19T02:46:03;98947.97;;;9.23;100.00
75594;BME280;64176;49.156;7.810;2023-11-19T02:48:53;98953.09;;;9.21;100.00
75594;BME280;64176;49.156;7.810;2023-11-19T02:51:37;98949.69;;;9.24;100.00
75594;BME280;64176;49.156;7.810;2023-11-19T02:54:24;98950.59;;;9.32;100.00
75594;BME280;64176;49.156;7.810;2023-11-19T02:57:13;98936.84;;;9.27;100.00
75594;BME280;64176;49.156;7.810;2023-11-19T02:59:57;98929.06;;;9.24;100.00
75594;BME280;64176;49.156;7.810;2023-11-19T03:02:46;98935.13;;;9.33;100.00
75594;BME280;64176;49.156;7.810;2023-11-19T03:05:36;98910.22;;;9.41;100.00
75594;BME280;64176;49.156;7.810;2023-11-19T03:08:21;98929.16;;;9.37;100.00
75594;BME280;64176;49.156;7.810;2023-11-19T03:11:06;98927.41;;;9.33;100.00
75594;BME280;64176;49.156;7.810;2023-11-19T03:13:50;98925.72;;;9.38;100.00
75594;BME280;64176;49.156;7.810;2023-11-19T03:16:34;98927.44;;;9.44;100.00
75594;BME280;64176;49.156;7.810;2023-11-19T03:19:20;98924.88;;;9.47;100.00
75594;BME280;64176;49.156;7.810;2023-11-19T03:22:07;98912.84;;;9.46;100.00
75594;BME280;64176;49.156;7.810;2023-11-19T03:24:51;98912.88;;;9.49;100.00
75594;BME280;64176;49.156;7.810;2023-11-19T03:27:40;98924.06;;;9.56;100.00
75594;BME280;64176;49.156;7.810;2023-11-19T03:30:26;98919.72;;;9.47;100.00
75594;BME280;64176;49.156;7.810;2023-11-19T03:33:12;98939.53;;;9.49;100.00
75594;BME280;64176;49.156;7.810;2023-11-19T03:35:56;98926.69;;;9.66;100.00
75594;BME280;64176;49.156;7.810;2023-11-19T03:38:40;98935.28;;;9.68;100.00
75594;BME280;64176;49.156;7.810;2023-11-19T03:41:26;98931.00;;;9.70;100.00
75594;BME280;64176;49.156;7.810;2023-11-19T03:44:12;98925.81;;;9.66;100.00
75594;BME280;64176;49.156;7.810;2023-11-19T03:46:56;98930.97;;;9.67;100.00
75594;BME280;64176;49.156;7.810;2023-11-19T03:49:47;98913.78;;;9.69;100.00
75594;BME280;64176;49.156;7.810;2023-11-19T03:52:34;98933.59;;;9.78;100.00
75594;BME280;64176;49.156;7.810;2023-11-19T03:55:23;98915.53;;;9.75;100.00
75594;BME280;64176;49.156;7.810;2023-11-19T03:58:07;98916.41;;;9.84;100.00
75594;BME280;64176;49.156;7.810;2023-11-19T04:00:51;98898.34;;;9.84;100.00
75594;BME280;64176;49.156;7.810;2023-11-19T04:03:36;98904.38;;;9.85;100.00
75594;BME280;64176;49.156;7.810;2023-11-19T04:06:22;98910.41;;;9.87;100.00
75594;BME280;64176;49.156;7.810;2023-11-19T04:09:06;98912.13;;;9.86;100.00
75594;BME280;64176;49.156;7.810;2023-11-19T04:11:53;98905.25;;;9.90;100.00
75594;BME280;64176;49.156;7.810;2023-11-19T04:14:37;98912.13;;;9.91;100.00
75594;BME280;64176;49.156;7.810;2023-11-19T04:17:24;98894.06;;;9.94;100.00
75594;BME280;64176;49.156;7.810;2023-11-19T04:20:11;98897.53;;;9.93;100.00
75594;BME280;64176;49.156;7.810;2023-11-19T04:22:57;98898.38;;;9.97;100.00
75594;BME280;64176;49.156;7.810;2023-11-19T04:25:44;98903.53;;;9.98;100.00
75594;BME280;64176;49.156;7.810;2023-11-19T04:28:30;98907.84;;;9.99;100.00
75594;BME280;64176;49.156;7.810;2023-11-19T04:31:17;98911.28;;;10.00;100.00
75594;BME280;64176;49.156;7.810;2023-11-19T04:34:02;98892.38;;;10.02;100.00
75594;BME280;64176;49.156;7.810;2023-11-19T04:36:46;98901.84;;;10.09;100.00
75594;BME280;64176;49.156;7.810;2023-11-19T04:39:38;98897.53;;;10.08;100.00
75594;BME280;64176;49.156;7.810;2023-11-19T04:42:26;98889.81;;;10.11;100.00
75594;BME280;64176;49.156;7.810;2023-11-19T04:45:10;98892.34;;;10.05;100.00
75594;BME280;64176;49.156;7.810;2023-11-19T04:47:57;98907.03;;;10.18;100.00
75594;BME280;64176;49.156;7.810;2023-11-19T04:50:41;98910.50;;;10.19;100.00
75594;BME280;64176;49.156;7.810;2023-11-19T04:53:27;98906.13;;;10.16;100.00
75594;BME280;64176;49.156;7.810;2023-11-19T04:56:14;98895.88;;;10.21;100.00
75594;BME280;64176;49.156;7.810;2023-11-19T04:59:04;98889.81;;;10.16;100.00
75594;BME280;64176;49.156;7.810;2023-11-19T05:01:49;98892.41;;;10.30;100.00
75594;BME280;64176;49.156;7.810;2023-11-19T05:04:34;98895.03;;;10.27;100.00
75594;BME280;64176;49.156;7.810;2023-11-19T05:07:19;98891.56;;;10.28;100.00
75594;BME280;64176;49.156;7.810;2023-11-19T05:10:03;98881.22;;;10.20;100.00
75594;BME280;64176;49.156;7.810;2023-11-19T05:12:48;98881.25;;;10.23;100.00
75594;BME280;64176;49.156;7.810;2023-11-19T05:15:34;98894.16;;;10.31;100.00
75594;BME280;64176;49.156;7.810;2023-11-19T05:18:19;98893.31;;;10.35;100.00
75594;BME280;64176;49.156;7.810;2023-11-19T05:21:02;98892.41;;;10.39;100.00
75594;BME280;64176;49.156;7.810;2023-11-19T05:23:46;98888.13;;;10.47;100.00
75594;BME280;64176;49.156;7.810;2023-11-19T05:26:30;98892.44;;;10.48;100.00
75594;BME280;64176;49.156;7.810;2023-11-19T05:29:17;98892.44;;;10.51;100.00
75594;BME280;64176;49.156;7.810;2023-11-19T05:32:07;98880.38;;;10.51;100.00
75594;BME280;64176;49.156;7.810;2023-11-19T05:34:53;98876.06;;;10.56;100.00
75594;BME280;64176;49.156;7.810;2023-11-19T05:37:37;98871.72;;;10.74;100.00
75594;BME280;64176;49.156;7.810;2023-11-19T05:40:24;98863.16;;;10.70;100.00
75594;BME280;64176;49.156;7.810;2023-11-19T05:43:10;98882.94;;;10.67;100.00
75594;BME280;64176;49.156;7.810;2023-11-19T05:45:58;98880.38;;;10.67;100.00
75594;BME280;64176;49.156;7.810;2023-11-19T05:48:45;98876.91;;;10.75;100.00
75594;BME280;64176;49.156;7.810;2023-11-19T05:51:36;98892.41;;;10.83;100.00
75594;BME280;64176;49.156;7.810;2023-11-19T05:54:20;98877.78;;;10.67;100.00
75594;BME280;64176;49.156;7.810;2023-11-19T05:57:07;98889.84;;;10.80;100.00
75594;BME280;64176;49.156;7.810;2023-11-19T05:59:54;98888.09;;;10.73;100.00
75594;BME280;64176;49.156;7.810;2023-11-19T06:02:40;98894.16;;;10.82;100.00
75594;BME280;64176;49.156;7.810;2023-11-19T06:05:27;98886.38;;;10.78;100.00
75594;BME280;64176;49.156;7.810;2023-11-19T06:08:11;98883.81;;;10.81;100.00
75594;BME280;64176;49.156;7.810;2023-11-19T06:11:01;98903.59;;;10.83;100.00
75594;BME280;64176;49.156;7.810;2023-11-19T06:13:45;98894.13;;;10.85;100.00
75594;BME280;64176;49.156;7.810;2023-11-19T06:16:30;98889.78;;;10.95;100.00
75594;BME280;64176;49.156;7.810;2023-11-19T06:19:14;98891.50;;;10.94;100.00
75594;BME280;64176;49.156;7.810;2023-11-19T06:22:00;98894.13;;;10.85;100.00
75594;BME280;64176;49.156;7.810;2023-11-19T06:24:47;98886.34;;;11.01;100.00
75594;BME280;64176;49.156;7.810;2023-11-19T06:27:31;98894.97;;;10.87;100.00
75594;BME280;64176;49.156;7.810;2023-11-19T06:30:20;98886.38;;;10.84;100.00
75594;BME280;64176;49.156;7.810;2023-11-19T06:33:05;98890.69;;;10.91;100.00
75594;BME280;64176;49.156;7.810;2023-11-19T06:35:49;98887.22;;;10.95;100.00
75594;BME280;64176;49.156;7.810;2023-11-19T06:38:34;98886.38;;;10.87;100.00
75594;BME280;64176;49.156;7.810;2023-11-19T06:41:18;98887.22;;;10.89;100.00
75594;BME280;64176;49.156;7.810;2023-11-19T06:44:02;98887.22;;;10.90;100.00
75594;BME280;64176;49.156;7.810;2023-11-19T06:46:48;98900.16;;;10.87;100.00
75594;BME280;64176;49.156;7.810;2023-11-19T06:49:34;98907.03;;;10.85;100.00
75594;BME280;64176;49.156;7.810;2023-11-19T06:52:18;98906.19;;;10.86;100.00
75594;BME280;64176;49.156;7.810;2023-11-19T06:55:05;98904.50;;;10.82;100.00
75594;BME280;64176;49.156;7.810;2023-11-19T06:57:52;98920.81;;;10.95;100.00
75594;BME280;64176;49.156;7.810;2023-11-19T07:00:36;98916.50;;;11.05;100.00
75594;BME280;64176;49.156;7.810;2023-11-19T07:03:25;98913.91;;;11.09;100.00
75594;BME280;64176;49.156;7.810;2023-11-19T07:06:10;98918.22;;;11.09;100.00
75594;BME280;64176;49.156;7.810;2023-11-19T07:08:57;98919.06;;;11.14;100.00
75594;BME280;64176;49.156;7.810;2023-11-19T07:11:43;98902.69;;;11.15;100.00
75594;BME280;64176;49.156;7.810;2023-11-19T07:14:31;98935.44;;;11.25;100.00
75594;BME280;64176;49.156;7.810;2023-11-19T07:17:16;98926.81;;;11.18;100.00
75594;BME280;64176;49.156;7.810;2023-11-19T07:20:02;98917.31;;;11.19;100.00
75594;BME280;64176;49.156;7.810;2023-11-19T07:22:49;98925.09;;;11.11;100.00
75594;BME280;64176;49.156;7.810;2023-11-19T07:25:36;98932.00;;;11.12;100.00
75594;BME280;64176;49.156;7.810;2023-11-19T07:28:22;98935.44;;;11.17;100.00
75594;BME280;64176;49.156;7.810;2023-11-19T07:31:13;98942.31;;;11.20;100.00
75594;BME280;64176;49.156;7.810;2023-11-19T07:33:57;98948.38;;;11.25;100.00
75594;BME280;64176;49.156;7.810;2023-11-19T07:36:41;98963.81;;;11.51;100.00
75594;BME280;64176;49.156;7.810;2023-11-19T07:39:33;98958.66;;;11.43;100.00
75594;BME280;64176;49.156;7.810;2023-11-19T07:42:24;98965.59;;;11.37;100.00
75594;BME280;64176;49.156;7.810;2023-11-19T07:45:09;98970.75;;;11.35;100.00
75594;BME280;64176;49.156;7.810;2023-11-19T07:47:53;98962.13;;;11.30;100.00
75594;BME280;64176;49.156;7.810;2023-11-19T07:50:39;98986.28;;;11.37;100.00
75594;BME280;64176;49.156;7.810;2023-11-19T07:53:24;98975.88;;;11.59;100.00
75594;BME280;64176;49.156;7.810;2023-11-19T07:56:09;98980.19;;;11.51;100.00
75594;BME280;64176;49.156;7.810;2023-11-19T07:58:52;98974.97;;;11.63;100.00
75594;BME280;64176;49.156;7.810;2023-11-19T08:01:39;98975.84;;;11.61;100.00
75594;BME280;64176;49.156;7.810;2023-11-19T08:04:30;98973.25;;;11.61;100.00
75594;BME280;64176;49.156;7.810;2023-11-19T08:07:15;98981.06;;;11.50;100.00
75594;BME280;64176;49.156;7.810;2023-11-19T08:09:59;98981.91;;;11.55;100.00
75594;BME280;64176;49.156;7.810;2023-11-19T08:12:48;98980.19;;;11.57;100.00
75594;BME280;64176;49.156;7.810;2023-11-19T08:15:33;98979.28;;;11.63;100.00
75594;BME280;64176;49.156;7.810;2023-11-19T08:18:17;98987.06;;;11.61;100.00
75594;BME280;64176;49.156;7.810;2023-11-19T08:21:04;98967.19;;;11.73;100.00
75594;BME280;64176;49.156;7.810;2023-11-19T08:23:48;98965.50;;;11.65;100.00
75594;BME280;64176;49.156;7.810;2023-11-19T08:26:37;98967.22;;;11.76;100.00
75594;BME280;64176;49.156;7.810;2023-11-19T08:29:21;98968.94;;;11.78;100.00
75594;BME280;64176;49.156;7.810;2023-11-19T08:32:06;98972.38;;;11.82;100.00
75594;BME280;64176;49.156;7.810;2023-11-19T08:34:51;98962.84;;;11.91;100.00
75594;BME280;64176;49.156;7.810;2023-11-19T08:37:35;98972.28;;;11.95;100.00
75594;BME280;64176;49.156;7.810;2023-11-19T08:40:23;98977.41;;;12.06;100.00
75594;BME280;64176;49.156;7.810;2023-11-19T08:43:09;98975.78;;;11.93;100.00
75594;BME280;64176;49.156;7.810;2023-11-19T08:45:53;98985.28;;;11.91;100.00
75594;BME280;64176;49.156;7.810;2023-11-19T08:48:42;98986.09;;;12.00;100.00
75594;BME280;64176;49.156;7.810;2023-11-19T08:51:26;98980.91;;;11.99;100.00
75594;BME280;64176;49.156;7.810;2023-11-19T08:54:15;98993.84;;;12.03;100.00
75594;BME280;64176;49.156;7.810;2023-11-19T08:57:04;98987.78;;;12.06;100.00
75594;BME280;64176;49.156;7.810;2023-11-19T08:59:48;98991.22;;;12.11;100.00
75594;BME280;64176;49.156;7.810;2023-11-19T09:02:32;98986.03;;;12.10;100.00
75594;BME280;64176;49.156;7.810;2023-11-19T09:05:16;98986.84;;;12.18;100.00
75594;BME280;64176;49.156;7.810;2023-11-19T09:08:00;98986.84;;;12.18;100.00
75594;BME280;64176;49.156;7.810;2023-11-19T09:10:44;98980.81;;;12.17;100.00
75594;BME280;64176;49.156;7.810;2023-11-19T09:13:28;98983.41;;;12.19;100.00
75594;BME280;64176;49.156;7.810;2023-11-19T09:16:17;98981.69;;;12.16;100.00
75594;BME280;64176;49.156;7.810;2023-11-19T09:19:01;98992.03;;;12.25;100.00
75594;BME280;64176;49.156;7.810;2023-11-19T09:21:48;98988.47;;;12.38;100.00
75594;BME280;64176;49.156;7.810;2023-11-19T09:24:32;98998.00;;;12.32;100.00
75594;BME280;64176;49.156;7.810;2023-11-19T09:27:19;98998.88;;;12.32;100.00
75594;BME280;64176;49.156;7.810;2023-11-19T09:30:05;98997.16;;;12.33;100.00
75594;BME280;64176;49.156;7.810;2023-11-19T09:32:52;99008.38;;;12.30;100.00
75594;BME280;64176;49.156;7.810;2023-11-19T09:35:38;99004.88;;;12.37;100.00
75594;BME280;64176;49.156;7.810;2023-11-19T09:38:22;99010.06;;;12.39;100.00
75594;BME280;64176;49.156;7.810;2023-11-19T09:41:09;99010.97;;;12.36;100.00
75594;BME280;64176;49.156;7.810;2023-11-19T09:43:56;99002.25;;;12.47;100.00
75594;BME280;64176;49.156;7.810;2023-11-19T09:46:41;99001.41;;;12.46;100.00
75594;BME280;64176;49.156;7.810;2023-11-19T09:49:26;99005.59;;;12.59;100.00
75594;BME280;64176;49.156;7.810;2023-11-19T09:52:11;99012.44;;;12.71;100.00
75594;BME280;64176;49.156;7.810;2023-11-19T09:54:55;99008.19;;;12.62;100.00
75594;BME280;64176;49.156;7.810;2023-11-19T09:57:42;99004.78;;;12.57;100.00
75594;BME280;64176;49.156;7.810;2023-11-19T10:00:30;98989.16;;;12.62;100.00
75594;BME280;64176;49.156;7.810;2023-11-19T10:03:21;98985.75;;;12.58;100.00
75594;BME280;64176;49.156;7.810;2023-11-19T10:06:07;98991.78;;;12.60;100.00
75594;BME280;64176;49.156;7.810;2023-11-19T10:08:52;98952.84;;;12.68;100.00
75594;BME280;64176;49.156;7.810;2023-11-19T10:11:36;98981.31;;;12.71;100.00
75594;BME280;64176;49.156;7.810;2023-11-19T10:14:23;98972.66;;;12.78;100.00
75594;BME280;64176;49.156;7.810;2023-11-19T10:17:09;98966.53;;;12.84;100.00
75594;BME280;64176;49.156;7.810;2023-11-19T10:19:59;98968.22;;;12.91;100.00
75594;BME280;64176;49.156;7.810;2023-11-19T10:22:43;98982.84;;;12.96;100.00
75594;BME280;64176;49.156;7.810;2023-11-19T10:25:29;98966.41;;;13.02;100.00
75594;BME280;64176;49.156;7.810;2023-11-19T10:28:18;98971.47;;;13.16;100.00
75594;BME280;64176;49.156;7.810;2023-11-19T10:31:05;98957.50;;;13.29;100.00
75594;BME280;64176;49.156;7.810;2023-11-19T10:33:54;98973.00;;;13.36;100.00
75594;BME280;64176;49.156;7.810;2023-11-19T10:36:39;98976.41;;;13.40;100.00
75594;BME280;64176;49.156;7.810;2023-11-19T10:39:54;98965.13;;;13.44;100.00
75594;BME280;64176;49.156;7.810;2023-11-19T10:42:38;98961.72;;;13.39;100.00
75594;BME280;64176;49.156;7.810;2023-11-19T10:45:24;98958.06;;;13.58;100.00
75594;BME280;64176;49.156;7.810;2023-11-19T10:48:09;98961.50;;;13.59;100.00
75594;BME280;64176;49.156;7.810;2023-11-19T10:50:54;98955.25;;;13.75;100.00
75594;BME280;64176;49.156;7.810;2023-11-19T10:53:43;98957.88;;;13.72;100.00
75594;BME280;64176;49.156;7.810;2023-11-19T10:56:30;98958.59;;;13.83;100.00
75594;BME280;64176;49.156;7.810;2023-11-19T10:59:17;98956.84;;;13.85;100.00
75594;BME280;64176;49.156;7.810;2023-11-19T11:02:07;98956.00;;;13.84;100.00
75594;BME280;64176;49.156;7.810;2023-11-19T11:04:54;98941.16;;;13.94;100.00
75594;BME280;64176;49.156;7.810;2023-11-19T11:07:39;98931.78;;;13.82;100.00
75594;BME280;64176;49.156;7.810;2023-11-19T11:10:25;98930.53;;;14.12;99.96
75594;BME280;64176;49.156;7.810;2023-11-19T11:13:10;98922.66;;;14.15;99.19
75594;BME280;64176;49.156;7.810;2023-11-19T11:15:57;98927.06;;;14.12;98.70
75594;BME280;64176;49.156;7.810;2023-11-19T11:18:46;98927.75;;;14.23;95.58
75594;BME280;64176;49.156;7.810;2023-11-19T11:21:33;98929.38;;;14.30;96.27
75594;BME280;64176;49.156;7.810;2023-11-19T11:24:27;98917.94;;;14.45;93.76
75594;BME280;64176;49.156;7.810;2023-11-19T11:27:28;98928.97;;;14.59;92.91
75594;BME280;64176;49.156;7.810;2023-11-19T11:30:31;98923.31;;;14.30;93.25
75594;BME280;64176;49.156;7.810;2023-11-19T11:33:34;98916.22;;;14.44;92.32
75594;BME280;64176;49.156;7.810;2023-11-19T11:36:22;98917.38;;;14.23;94.03
75594;BME280;64176;49.156;7.810;2023-11-19T11:39:07;98902.50;;;14.33;93.67
75594;BME280;64176;49.156;7.810;2023-11-19T11:45:12;98895.00;;;14.13;89.93
75594;BME280;64176;49.156;7.810;2023-11-19T11:50:52;98911.34;;;14.19;92.48
75594;BME280;64176;49.156;7.810;2023-11-19T11:53:36;98892.41;;;14.13;91.63
75594;BME280;64176;49.156;7.810;2023-11-19T11:56:20;98909.63;;;14.18;91.43
75594;BME280;64176;49.156;7.810;2023-11-19T11:59:08;98908.59;;;14.29;89.11
75594;BME280;64176;49.156;7.810;2023-11-19T12:01:58;98916.25;;;14.42;87.99
75594;BME280;64176;49.156;7.810;2023-11-19T12:04:46;98900.63;;;14.44;87.56
75594;BME280;64176;49.156;7.810;2023-11-19T12:07:33;98887.59;;;14.45;87.49
75594;BME280;64176;49.156;7.810;2023-11-19T12:10:20;98897.03;;;14.49;87.04
75594;BME280;64176;49.156;7.810;2023-11-19T12:13:06;98898.78;;;14.49;83.75
75594;BME280;64176;49.156;7.810;2023-11-19T12:18:42;98894.56;;;14.43;81.71
75594;BME280;64176;49.156;7.810;2023-11-19T12:21:30;98893.66;;;14.46;82.59
75594;BME280;64176;49.156;7.810;2023-11-19T12:24:15;98884.19;;;14.42;81.53
75594;BME280;64176;49.156;7.810;2023-11-19T12:26:59;98880.03;;;14.27;80.06
75594;BME280;64176;49.156;7.810;2023-11-19T12:29:43;98886.22;;;14.20;80.82
75594;BME280;64176;49.156;7.810;2023-11-19T12:32:38;98894.41;;;13.93;81.54
75594;BME280;64176;49.156;7.810;2023-11-19T12:35:23;98897.91;;;13.92;82.26
75594;BME280;64176;49.156;7.810;2023-11-19T12:38:07;98885.84;;;13.84;82.97
75594;BME280;64176;49.156;7.810;2023-11-19T12:41:06;98882.44;;;13.81;82.51
75594;BME280;64176;49.156;7.810;2023-11-19T12:43:51;98876.44;;;13.79;85.34
75594;BME280;64176;49.156;7.810;2023-11-19T12:46:34;98891.91;;;13.87;84.05
75594;BME280;64176;49.156;7.810;2023-11-19T12:49:18;98883.13;;;13.94;84.30
75594;BME280;64176;49.156;7.810;2023-11-19T12:52:11;98889.44;;;13.77;84.61
75594;BME280;64176;49.156;7.810;2023-11-19T12:54:56;98878.19;;;13.75;84.48
75594;BME280;64176;49.156;7.810;2023-11-19T12:57:42;98872.03;;;13.81;83.47
75594;BME280;64176;49.156;7.810;2023-11-19T13:00:27;98862.44;;;13.88;83.18
75594;BME280;64176;49.156;7.810;2023-11-19T13:03:11;98865.91;;;13.88;82.17
75594;BME280;64176;49.156;7.810;2023-11-19T13:06:08;98861.47;;;13.95;82.81
75594;BME280;64176;49.156;7.810;2023-11-19T13:08:54;98858.84;;;13.96;78.11
75594;BME280;64176;49.156;7.810;2023-11-19T13:11:39;98867.47;;;14.00;79.15
75594;BME280;64176;49.156;7.810;2023-11-19T13:14:36;98863.91;;;14.05;78.12
75594;BME280;64176;49.156;7.810;2023-11-19T13:17:21;98863.88;;;14.07;77.64
75594;BME280;64176;49.156;7.810;2023-11-19T13:20:06;98855.22;;;14.08;78.59
75594;BME280;64176;49.156;7.810;2023-11-19T13:23:08;98853.47;;;14.08;78.34
75594;BME280;64176;49.156;7.810;2023-11-19T13:25:52;98852.66;;;14.05;78.41
75594;BME280;64176;49.156;7.810;2023-11-19T13:28:39;98860.44;;;14.06;77.87
75594;BME280;64176;49.156;7.810;2023-11-19T13:31:25;98850.84;;;14.11;76.98
75594;BME280;64176;49.156;7.810;2023-11-19T13:34:10;98850.81;;;14.13;77.41
75594;BME280;64176;49.156;7.810;2023-11-19T13:36:53;98845.69;;;14.08;76.07
75594;BME280;64176;49.156;7.810;2023-11-19T13:39:41;98838.75;;;14.07;76.31
75594;BME280;64176;49.156;7.810;2023-11-19T13:42:26;98828.31;;;14.12;76.45
75594;BME280;64176;49.156;7.810;2023-11-19T13:45:12;98833.50;;;14.12;77.15
75594;BME280;64176;49.156;7.810;2023-11-19T13:47:57;98822.97;;;14.19;76.09
75594;BME280;64176;49.156;7.810;2023-11-19T13:50:41;98832.47;;;14.22;76.81
75594;BME280;64176;49.156;7.810;2023-11-19T13:53:26;98825.75;;;14.09;77.07
75594;BME280;64176;49.156;7.810;2023-11-19T13:56:15;98837.06;;;14.05;77.23
75594;BME280;64176;49.156;7.810;2023-11-19T13:59:03;98830.13;;;14.05;77.55
75594;BME280;64176;49.156;7.810;2023-11-19T14:01:47;98830.25;;;13.98;77.22
75594;BME280;64176;49.156;7.810;2023-11-19T14:04:31;98825.91;;;13.98;75.47
75594;BME280;64176;49.156;7.810;2023-11-19T14:07:15;98817.59;;;13.76;76.88
75594;BME280;64176;49.156;7.810;2023-11-19T14:09:59;98834.91;;;13.74;74.48
75594;BME280;64176;49.156;7.810;2023-11-19T14:12:43;98833.38;;;13.61;76.10
75594;BME280;64176;49.156;7.810;2023-11-19T14:15:27;98829.84;;;13.65;76.71
75594;BME280;64176;49.156;7.810;2023-11-19T14:18:12;98834.34;;;13.53;76.02
75594;BME280;64176;49.156;7.810;2023-11-19T14:20:56;98835.88;;;13.69;74.09
75594;BME280;64176;49.156;7.810;2023-11-19T14:23:40;98823.97;;;13.53;75.13
75594;BME280;64176;49.156;7.810;2023-11-19T14:26:24;98825.81;;;13.44;75.91
75594;BME280;64176;49.156;7.810;2023-11-19T14:29:08;98847.44;;;13.45;76.00
75594;BME280;64176;49.156;7.810;2023-11-19T14:31:52;98833.66;;;13.38;76.83
75594;BME280;64176;49.156;7.810;2023-11-19T14:34:39;98837.09;;;13.42;76.30
75594;BME280;64176;49.156;7.810;2023-11-19T14:37:27;98834.50;;;13.40;77.78
75594;BME280;64176;49.156;7.810;2023-11-19T14:40:12;98833.66;;;13.38;78.11
75594;BME280;64176;49.156;7.810;2023-11-19T14:42:56;98838.09;;;13.32;78.78
75594;BME280;64176;49.156;7.810;2023-11-19T14:45:40;98851.13;;;13.26;79.72
75594;BME280;64176;49.156;7.810;2023-11-19T14:48:24;98839.84;;;13.28;79.55